»·PEaware :: AWE1649 KELP-KABQ

AWE1649 :: KELP-KABQ

FLIGHT INFORMATION

Flight Status: Arrived
Operator:
US Airways
More flights by this operator :: More flights under this callsign
Pilot: Walter P. (10403)
Aircraft: BOEING 737-300
(B733)
More flights by this aircraft type
Origin: KELP El Paso Intl
United States
Destination: KABQ Albuquerque Intl Sunport
United States
More flights between these airports :: More routes between these airports
Route: +JCOXX2 SLNNK ABQ
File this flight plan on PilotEdge
Remarks:
Altitude:
(Current/Filed)
23,000ft
Speed:
(Current/Filed)
420kts
Departed: 26-Apr-18 01:13 PM
Arrived: 26-Apr-18 02:05 PM
Distance/Time
Traveled:
195nm/0:52
Distance/Time
To Go:
Arrived

Flight Plot

Page will automatically refresh every two minutes.

Flight plan parsing failed; only flown route is shown


Map Options




Map Legend


Flown Route
Filed Route
Departure Airport
Arrival Airport
Navaid (VOR, NDB)
Fix

Horizontal Profiles

Position Reports

Time Latitude Longitude Heading Altitude Ground
Speed
26-Apr-18 12:39 31.799648 -106.393751 349 3923ft 0kts
26-Apr-18 12:40 31.799648 -106.393751 349 3923ft 0kts
26-Apr-18 12:41 31.799648 -106.393751 349 3923ft 0kts
26-Apr-18 12:42 31.799648 -106.393751 349 3923ft 0kts
26-Apr-18 12:43 31.799648 -106.393751 349 3923ft 0kts
26-Apr-18 12:44 31.799648 -106.393751 349 3923ft 0kts
26-Apr-18 12:45 31.799648 -106.393751 349 3923ft 0kts
26-Apr-18 12:46 31.799648 -106.393751 349 3923ft 0kts
26-Apr-18 12:47 31.799648 -106.393751 349 3923ft 0kts
26-Apr-18 12:48 31.799648 -106.393751 349 3923ft 0kts
26-Apr-18 12:49 31.799648 -106.393751 349 3923ft 0kts
26-Apr-18 12:50 31.799648 -106.393751 349 3923ft 0kts
26-Apr-18 12:51 31.799648 -106.393751 349 3923ft 0kts
26-Apr-18 12:52 31.799648 -106.393751 349 3923ft 0kts
26-Apr-18 12:53 31.799648 -106.393751 349 3923ft 0kts
26-Apr-18 12:54 31.799648 -106.393751 349 3923ft 0kts
26-Apr-18 12:55 31.799648 -106.393751 349 3923ft 0kts
26-Apr-18 12:56 31.799648 -106.393751 349 3923ft 0kts
26-Apr-18 12:57 31.799648 -106.393751 349 3923ft 0kts
26-Apr-18 12:58 31.799648 -106.393751 349 3923ft 0kts
26-Apr-18 12:59 31.799648 -106.393751 349 3923ft 0kts
26-Apr-18 13:00 31.799648 -106.393751 349 3923ft 0kts
26-Apr-18 13:01 31.799397 -106.393674 346 3923ft 2kts
26-Apr-18 13:02 31.799226 -106.393813 70 3922ft 0kts
26-Apr-18 13:03 31.799227 -106.393813 70 3922ft 0kts
26-Apr-18 13:04 31.799227 -106.393813 70 3922ft 0kts
26-Apr-18 13:05 31.799227 -106.393813 70 3922ft 0kts
26-Apr-18 13:06 31.799227 -106.393813 70 3922ft 0kts
26-Apr-18 13:07 31.799240 -106.393771 69 3922ft 1kts
26-Apr-18 13:08 31.800241 -106.391373 21 3924ft 15kts
26-Apr-18 13:09 31.801533 -106.397095 272 3920ft 22kts
26-Apr-18 13:10 31.800932 -106.398919 307 3918ft 0kts
26-Apr-18 13:11 31.801854 -106.399390 41 3918ft 15kts
26-Apr-18 13:12 31.817492 -106.377504 49 3953ft 155kts
26-Apr-18 13:13 31.847616 -106.333985 50 5182ft 180kts
26-Apr-18 13:14 31.880709 -106.287641 24 7028ft 211kts
26-Apr-18 13:15 31.926808 -106.326913 284 9115ft 258kts
26-Apr-18 13:16 31.941885 -106.412755 283 11239ft 292kts
26-Apr-18 13:17 31.986129 -106.499939 313 13054ft 334kts
26-Apr-18 13:18 32.049837 -106.581348 312 15975ft 345kts
26-Apr-18 13:19 32.113709 -106.666683 310 17122ft 351kts
26-Apr-18 13:20 32.178116 -106.754176 310 19396ft 358kts
26-Apr-18 13:21 32.244625 -106.844824 309 21745ft 370kts
26-Apr-18 13:22 32.320720 -106.925893 327 22102ft 376kts
26-Apr-18 13:23 32.410421 -106.989592 326 22091ft 376kts
26-Apr-18 13:24 32.499741 -107.053342 326 22082ft 376kts
26-Apr-18 13:25 32.590252 -107.118086 326 23184ft 385kts
26-Apr-18 13:26 32.682441 -107.184240 326 24099ft 389kts
26-Apr-18 13:27 32.774467 -107.250409 326 24084ft 385kts
26-Apr-18 13:28 32.865003 -107.315677 326 24070ft 381kts
26-Apr-18 13:29 32.956688 -107.378389 341 24059ft 387kts
26-Apr-18 13:30 33.065376 -107.354771 7 24077ft 404kts
26-Apr-18 13:31 33.174351 -107.327588 6 24074ft 403kts
26-Apr-18 13:32 33.283915 -107.300940 6 24085ft 399kts
26-Apr-18 13:33 33.391634 -107.272933 8 24078ft 396kts
26-Apr-18 13:34 33.498689 -107.243878 7 24070ft 397kts
26-Apr-18 13:35 33.606451 -107.214594 7 24074ft 398kts
26-Apr-18 13:36 33.714075 -107.185266 7 24064ft 397kts
26-Apr-18 13:37 33.821213 -107.155994 7 24061ft 394kts
26-Apr-18 13:38 33.927960 -107.126762 7 24064ft 395kts
26-Apr-18 13:39 34.034423 -107.097529 7 24064ft 395kts
26-Apr-18 13:40 34.140786 -107.068120 7 24057ft 394kts
26-Apr-18 13:41 34.246756 -107.038916 8 22903ft 394kts
26-Apr-18 13:42 34.353275 -107.009457 9 21123ft 397kts
26-Apr-18 13:43 34.452516 -106.954942 38 19027ft 405kts
26-Apr-18 13:44 34.533201 -106.866325 38 16885ft 375kts
26-Apr-18 13:45 34.606417 -106.786512 38 14687ft 348kts
26-Apr-18 13:46 34.678562 -106.712796 21 12176ft 327kts
26-Apr-18 13:47 34.744551 -106.746212 284 10560ft 281kts
26-Apr-18 13:48 34.784829 -106.812469 347 8915ft 250kts
26-Apr-18 13:49 34.840936 -106.780465 48 7945ft 258kts
26-Apr-18 13:50 34.902994 -106.743351 18 8003ft 253kts
26-Apr-18 13:51 34.961941 -106.710812 29 7810ft 211kts
26-Apr-18 13:52 35.008671 -106.659988 36 7540ft 247kts
26-Apr-18 13:53 35.071411 -106.663982 302 8643ft 262kts
26-Apr-18 13:54 35.074130 -106.752294 268 9018ft 266kts
26-Apr-18 13:55 35.060277 -106.838257 229 9024ft 267kts
26-Apr-18 13:56 34.998383 -106.890249 218 9020ft 270kts
26-Apr-18 13:57 34.935648 -106.939434 197 9007ft 275kts
26-Apr-18 13:58 34.884211 -106.892107 82 8004ft 260kts
26-Apr-18 13:59 34.902028 -106.810507 68 7943ft 242kts
26-Apr-18 14:00 34.929955 -106.740460 40 7980ft 217kts
26-Apr-18 14:01 34.970772 -106.692536 39 6749ft 184kts
26-Apr-18 14:02 35.004554 -106.651816 40 5868ft 156kts
26-Apr-18 14:03 35.033485 -106.617029 42 5322ft 119kts
26-Apr-18 14:04 35.042413 -106.609173 270 5322ft 12kts
26-Apr-18 14:05 35.042588 -106.613732 328 5322ft 13kts
26-Apr-18 14:06 35.045546 -106.615844 270 5322ft 16kts
26-Apr-18 14:07 35.046972 -106.617397 23 5322ft 0kts
26-Apr-18 14:08 35.046979 -106.617393 23 5322ft 0kts
26-Apr-18 14:09 35.046979 -106.617393 23 5322ft 0kts
26-Apr-18 14:16 35.046969 -106.617395 23 5322ft 0kts
26-Apr-18 14:17 35.046969 -106.617395 23 5322ft 0kts
26-Apr-18 14:18 35.046969 -106.617395 23 5322ft 0kts

Navigation Log

Ident Type
Flight plan parsing failed, navigation log unavailable